LFLN/SYT METAR and TAF weather

Enter ICAO airport designator
Station Type Date Time Source
LFLN METAR 2019/08/25 18:00 UTC NOAA

LFLN 251800Z AUTO 00000KT CAVOK 31/10 Q1017 NOSIG


Station Type Date Time Source
LFLN Decoded METAR 2019/08/25 18:00 UTC NOAA

Station name not available
Aug 25, 2019 - 02:00 PM EDT / 2019.08.25 1800 UTC
Wind: Calm:0
Visibility: greater than 7 mile(s):0
Temperature: 87 F (31 C)
Dew Point: 50 F (10 C)
Relative Humidity: 27%
Pressure (altimeter): 30.03 in. Hg (1017 hPa)
ob: LFLN 251800Z AUTO 00000KT CAVOK 31/10 Q1017 NOSIG
cycle: 18

Station Type Date Time Source
LFLN TAF UTC NOAA

Error!

Example: see airport list